Share

Palau, PW

19:03 PWT le 23 avril 2014 (GMT +0900)
Rota I International (PGRO) Alt. 607 ft | 14.17 °N, 145.24 °E | Change Station

Current weather conditions updated 13 minutes ago

Partly Cloudy
Partiellement nuageux
79 ° F
Paraît 79 ° F
N
14
Vent Variable Vent de Est
Lever du soleil 5:49 AM
Coucher du soleil 6:08 PM
Lune Dernier quartier

Demain il est prévu de faire plus froid qu’aujourd’hui. Orages. tomorrow night.

Pression 29.90 pouce
Visibilité 7.0 Miles terrestres
Nuages Peu 3000 ft
Point de rosée 72 ° F
Humidité 78%
Précipitations 0.00 pouce
Profondeur de la couche neigeuse Non disponible.
UV 0 sur 16
Pollen Non disponible.
Qualité de l'air Non disponible.
Flu Activity
METAR PGRO 230950Z 08012KT 7SM FEW030 26/22 A2990 RMK LAST

More Conditions Fewer Conditions

Pression 29.90 pouce
Visibilité 7.0 Miles terrestres
Nuages Peu 3000 ft
Point de rosée 72 ° F
Humidité 78%
Précipitations 0.00 pouce
Profondeur de la couche neigeuse Non disponible.
UV 0 sur 16
Pollen Non disponible.
Qualité de l'air Non disponible.
Flu Activity
METAR PGRO 230950Z 08012KT 7SM FEW030 26/22 A2990 RMK LAST

More Conditions Fewer Conditions

10-Day Weather Forecast

Almanac

Astronomie

Apr. 23, 2014 Lever Coucher
Temps réel 05:49 PWT 18:08 PWT
Crépuscule civil 05:28 PWT 18:30 PWT
Crépuscule nautique 05:03 PWT 18:55 PWT
Crépuscule astronomique 04:38 PWT 19:20 PWT
Lune 00:36 PWT 12:49 PWT
Durée de lumière visible 13h 02m
Longueur du jour
12h 19m
Tomorrow will be 0m 22s longer.
Dernier quartier, 38% of the Moon is Illuminated
Aujourd'hui
Dernier quartier
avr 29
Nouveau
mai 6
Premier quartier
mai 14
Pleine lune
mai 21
Dernier quartier

Community

  • April Sunset
    April Sunset
  • Waiting..
    Waiting..
  • Sunset...
    Sunset...
  • Happy outdoor day
    Happy outdoor day
  • mystic afternoon....
    mystic afternoon....

WunderPhotos

Upload Photos

1,704,236 Photos téléchargées !

WunderBlogs® & News

By Dr. Jeff Masters
Director of Meteorology, Weather Underground
By Kari Strenfel
Meteorologist, Weather Underground
By Christopher C. Burt
Weather Historian, Weather Underground
April 23, 2014
April 22, 2014
April 22, 2014

Nearby

Qualité de l'air

Not available.

Épaisseur de neige

Station Depth Altitude
Pas de nouvelles chutes de neige

Températures des eaux côtières

Lieu Température
Aucun rapport de station

Activité sismique

Ville Distance Mag. Time & Date
No recent earthquake activity has been reported nearby.
Minimum magnitude displayed is 2.5.

Stations météo à proximité

Il n'y a aucune station météorologique personnelle dans cette zone.

What do you think?

We're not finished. Please let us know what you like, what you don't like, and what you are still missing.